createdAt,value
2023-01-30T00:00:13.133Z,18.05
2023-01-30T00:04:17.364Z,17.70
2023-01-30T00:08:20.941Z,17.30
2023-01-30T00:12:25.270Z,18.02
2023-01-30T00:16:28.259Z,18.40
2023-01-30T00:20:31.440Z,17.73
2023-01-30T00:24:34.263Z,19.48
2023-01-30T00:28:39.541Z,18.92
2023-01-30T00:32:42.364Z,18.52
2023-01-30T00:36:47.720Z,17.92
2023-01-30T00:40:52.525Z,17.38
2023-01-30T00:45:14.550Z,18.60
2023-01-30T00:49:17.675Z,18.48
2023-01-30T00:53:20.488Z,17.95
2023-01-30T00:57:23.657Z,17.38
2023-01-30T01:01:27.983Z,17.60
2023-01-30T01:05:30.809Z,17.50
2023-01-30T01:09:33.603Z,17.83
2023-01-30T01:13:36.596Z,17.90
2023-01-30T01:17:41.637Z,18.00
2023-01-30T01:21:44.420Z,18.20
2023-01-30T01:25:47.217Z,18.35
2023-01-30T01:29:50.066Z,17.63
2023-01-30T01:33:54.243Z,17.50
2023-01-30T01:37:57.922Z,18.80
2023-01-30T01:42:00.777Z,17.50
2023-01-30T01:46:09.201Z,18.17
2023-01-30T01:50:16.097Z,18.50
2023-01-30T01:54:24.513Z,19.27
2023-01-30T01:58:30.911Z,20.15
2023-01-30T02:02:35.503Z,19.48
2023-01-30T02:06:41.234Z,19.27
2023-01-30T02:14:54.177Z,17.00
2023-01-30T02:18:57.198Z,19.00
2023-01-30T02:23:50.680Z,20.38
2023-01-30T02:28:24.657Z,19.77
2023-01-30T02:32:35.971Z,18.75
2023-01-30T02:36:47.352Z,18.70
2023-01-30T02:40:57.236Z,18.52
2023-01-30T02:45:06.426Z,19.70
2023-01-30T02:49:15.564Z,18.95
2023-01-30T02:53:18.500Z,20.10
2023-01-30T02:57:23.312Z,19.20
2023-01-30T03:02:13.527Z,18.90
2023-01-30T03:06:43.643Z,18.80
2023-01-30T03:10:53.363Z,19.42
2023-01-30T03:15:01.475Z,18.75
2023-01-30T03:19:10.764Z,18.58
2023-01-30T03:23:15.286Z,18.08
2023-01-30T03:27:18.972Z,17.98
2023-01-30T03:31:23.418Z,20.02
2023-01-30T03:35:26.955Z,18.63
2023-01-30T03:39:31.335Z,17.88
2023-01-30T03:43:34.381Z,17.38
2023-01-30T03:47:39.469Z,20.05
2023-01-30T03:51:42.981Z,17.98
2023-01-30T03:55:47.305Z,16.17
2023-01-30T03:59:50.194Z,17.35
2023-01-30T04:03:53.178Z,17.85
2023-01-30T04:07:57.855Z,17.73
2023-01-30T04:12:02.059Z,17.90
2023-01-30T04:16:21.122Z,20.63
2023-01-30T04:20:43.951Z,17.27
2023-01-30T04:24:47.951Z,16.55
2023-01-30T04:28:52.834Z,18.58
2023-01-30T04:32:55.733Z,15.88
2023-01-30T04:36:58.725Z,16.25
2023-01-30T04:41:02.252Z,16.75
2023-01-30T04:45:10.455Z,16.80
2023-01-30T04:49:13.447Z,12.15
2023-01-30T04:53:17.135Z,16.23
2023-01-30T04:57:19.924Z,16.70
2023-01-30T05:01:26.805Z,16.83
2023-01-30T05:05:29.774Z,16.73
2023-01-30T05:09:32.631Z,14.43
2023-01-30T05:13:35.575Z,16.33
2023-01-30T05:17:39.790Z,15.60
2023-01-30T05:21:45.212Z,12.13
2023-01-30T05:25:47.990Z,16.15
2023-01-30T05:29:50.957Z,16.63
2023-01-30T05:33:55.195Z,16.63
2023-01-30T05:37:59.434Z,17.67
2023-01-30T05:42:02.341Z,13.10
2023-01-30T05:46:07.317Z,16.65
2023-01-30T05:50:12.760Z,16.60
2023-01-30T05:54:15.574Z,13.02
2023-01-30T05:58:18.358Z,16.55
2023-01-30T06:02:21.140Z,16.58
2023-01-30T06:06:26.116Z,14.60
2023-01-30T06:10:28.902Z,18.20
2023-01-30T06:14:31.596Z,15.30
2023-01-30T06:18:34.390Z,12.50
2023-01-30T06:22:38.613Z,13.00
2023-01-30T06:26:41.552Z,15.77
2023-01-30T06:30:45.007Z,11.93
2023-01-30T06:34:47.840Z,14.68
2023-01-30T06:38:51.958Z,11.13
2023-01-30T06:42:54.693Z,14.38
2023-01-30T06:46:57.522Z,12.70
2023-01-30T06:51:00.297Z,11.48
2023-01-30T06:55:04.735Z,12.77
2023-01-30T06:59:07.552Z,16.20
2023-01-30T07:03:12.453Z,13.40
2023-01-30T07:07:15.254Z,12.23
2023-01-30T07:11:19.753Z,11.32
2023-01-30T07:15:22.593Z,11.02
2023-01-30T07:19:25.295Z,11.68
2023-01-30T07:23:28.081Z,10.80
2023-01-30T07:27:32.234Z,9.35
2023-01-30T07:31:35.001Z,10.55
2023-01-30T07:35:39.036Z,15.10
2023-01-30T07:39:42.133Z,11.95
2023-01-30T07:43:46.298Z,13.75
2023-01-30T07:47:49.099Z,11.88
2023-01-30T07:51:51.931Z,13.18
2023-01-30T07:55:54.793Z,11.48
2023-01-30T07:59:58.963Z,11.23
2023-01-30T08:04:01.746Z,11.40
2023-01-30T08:08:04.710Z,9.40
2023-01-30T08:12:07.618Z,9.57
2023-01-30T08:16:11.935Z,11.57
2023-01-30T08:20:16.963Z,11.48
2023-01-30T08:24:20.407Z,10.52
2023-01-30T08:28:23.275Z,10.93
2023-01-30T08:32:29.581Z,10.85
2023-01-30T08:36:32.538Z,12.35
2023-01-30T08:41:01.093Z,11.15
2023-01-30T08:45:04.394Z,12.60
2023-01-30T08:49:08.580Z,11.77
2023-01-30T08:53:11.322Z,12.75
2023-01-30T08:57:15.634Z,12.38
2023-01-30T09:01:18.636Z,11.88
2023-01-30T09:05:23.266Z,10.95
2023-01-30T09:09:26.081Z,10.65
2023-01-30T09:13:29.966Z,11.88
2023-01-30T09:17:32.721Z,10.75
2023-01-30T09:21:38.906Z,13.15
2023-01-30T09:25:41.827Z,11.65
2023-01-30T09:29:45.522Z,9.02
2023-01-30T09:33:48.391Z,10.68
2023-01-30T09:37:54.123Z,10.82
2023-01-30T09:42:26.500Z,12.02
2023-01-30T09:46:39.453Z,9.60
2023-01-30T09:51:06.529Z,10.63
2023-01-30T09:55:18.558Z,9.32
2023-01-30T09:59:26.212Z,10.35
2023-01-30T10:03:35.915Z,9.18
2023-01-30T10:07:55.863Z,9.82
2023-01-30T10:12:15.564Z,8.70
2023-01-30T10:16:22.312Z,8.55
2023-01-30T10:20:35.525Z,9.13
2023-01-30T10:24:48.001Z,8.73
2023-01-30T10:29:06.540Z,9.23
2023-01-30T10:33:19.647Z,8.20
2023-01-30T10:37:27.587Z,9.35
2023-01-30T10:41:34.101Z,10.13
2023-01-30T10:45:44.575Z,8.18
2023-01-30T10:49:52.850Z,7.65
2023-01-30T10:54:01.060Z,7.20
2023-01-30T10:58:10.937Z,7.72
2023-01-30T11:02:25.577Z,7.35
2023-01-30T11:06:28.609Z,7.45
2023-01-30T11:10:32.400Z,7.97
2023-01-30T11:14:53.517Z,8.23
2023-01-30T11:23:26.264Z,7.82
2023-01-30T11:27:31.849Z,6.95
2023-01-30T11:31:41.413Z,7.03
2023-01-30T11:35:54.668Z,5.93
2023-01-30T11:39:57.555Z,6.72
2023-01-30T11:44:05.996Z,6.35
2023-01-30T11:48:31.526Z,6.50
2023-01-30T11:52:39.159Z,6.05
2023-01-30T11:56:47.703Z,5.25
2023-01-30T12:00:50.552Z,6.40
2023-01-30T12:04:57.079Z,5.72
2023-01-30T12:09:01.509Z,6.68
2023-01-30T12:13:22.694Z,5.72
2023-01-30T12:17:34.674Z,5.72
2023-01-30T12:21:46.852Z,5.35
2023-01-30T12:25:59.614Z,6.45
2023-01-30T12:30:06.661Z,6.38
2023-01-30T12:34:10.626Z,5.70
2023-01-30T12:38:27.104Z,5.53
2023-01-30T12:47:06.946Z,5.18
2023-01-30T12:51:19.561Z,4.22
2023-01-30T12:55:33.106Z,5.05
2023-01-30T12:59:48.999Z,4.60
2023-01-30T13:03:57.767Z,5.65
2023-01-30T13:08:27.093Z,5.38
2023-01-30T13:12:37.407Z,5.40
2023-01-30T13:16:54.340Z,4.93
2023-01-30T13:21:03.019Z,5.80
2023-01-30T13:25:19.638Z,5.75
2023-01-30T13:33:37.287Z,4.78
2023-01-30T13:37:40.323Z,4.13
2023-01-30T13:41:47.895Z,3.78
2023-01-30T13:45:52.872Z,4.63
2023-01-30T13:50:10.836Z,4.70
2023-01-30T13:54:38.373Z,4.20
2023-01-30T13:58:48.317Z,6.68
2023-01-30T14:03:26.143Z,5.15
2023-01-30T14:07:32.994Z,6.40
2023-01-30T14:11:39.287Z,4.28
2023-01-30T14:19:56.960Z,3.75
2023-01-30T14:24:03.081Z,3.50
2023-01-30T14:28:45.441Z,4.10
2023-01-30T14:32:56.502Z,4.07
2023-01-30T14:36:59.287Z,4.55
2023-01-30T14:41:27.360Z,4.07
2023-01-30T14:45:48.038Z,4.20
2023-01-30T14:49:51.609Z,3.45
2023-01-30T14:53:58.358Z,3.80
2023-01-30T14:58:04.953Z,4.10
2023-01-30T15:02:22.330Z,4.68
2023-01-30T15:06:26.222Z,4.75
2023-01-30T15:10:52.990Z,4.00
2023-01-30T15:19:23.357Z,3.78
2023-01-30T15:23:41.302Z,4.97
2023-01-30T15:27:57.266Z,5.93
2023-01-30T15:32:03.352Z,6.22
2023-01-30T15:36:19.570Z,5.93
2023-01-30T15:40:25.228Z,6.00
2023-01-30T15:44:40.508Z,5.72
2023-01-30T15:49:07.489Z,4.95
2023-01-30T15:53:14.512Z,5.95
2023-01-30T15:57:23.118Z,5.93
2023-01-30T16:01:26.350Z,5.60
2023-01-30T16:05:33.692Z,5.63
2023-01-30T16:09:37.622Z,6.32
2023-01-30T16:13:40.401Z,6.30
2023-01-30T16:17:46.107Z,5.35
2023-01-30T16:21:50.688Z,6.10
2023-01-30T16:25:54.657Z,4.82
2023-01-30T16:30:01.460Z,5.72
2023-01-30T16:34:04.820Z,5.90
2023-01-30T16:38:35.060Z,6.72
2023-01-30T16:42:38.091Z,6.32
2023-01-30T16:46:50.296Z,6.50
2023-01-30T16:51:12.964Z,7.10
2023-01-30T16:55:23.531Z,7.30
2023-01-30T16:59:31.310Z,7.63
2023-01-30T17:03:36.920Z,10.23
2023-01-30T17:07:39.789Z,6.72
2023-01-30T17:11:44.064Z,7.00
2023-01-30T17:15:47.083Z,5.68
2023-01-30T17:19:49.879Z,6.40
2023-01-30T17:23:55.671Z,5.15
2023-01-30T17:28:00.422Z,6.00
2023-01-30T17:32:10.503Z,6.50
2023-01-30T17:36:21.856Z,6.55
2023-01-30T17:40:34.561Z,6.10
2023-01-30T17:44:38.773Z,6.97
2023-01-30T17:48:41.711Z,6.35
2023-01-30T17:52:44.496Z,6.00
2023-01-30T17:56:49.529Z,6.03
2023-01-30T18:00:53.874Z,6.40
2023-01-30T18:04:56.685Z,7.75
2023-01-30T18:08:59.480Z,26.40
2023-01-30T18:13:02.234Z,11.13
2023-01-30T18:17:06.404Z,9.88
2023-01-30T18:21:09.214Z,17.55
2023-01-30T18:25:13.880Z,7.70
2023-01-30T18:29:16.713Z,6.40
2023-01-30T18:33:20.848Z,6.15
2023-01-30T18:37:23.601Z,5.82
2023-01-30T18:41:26.720Z,5.15
2023-01-30T18:45:29.496Z,4.20
2023-01-30T18:49:33.610Z,5.00
2023-01-30T18:53:37.066Z,5.13
2023-01-30T18:57:39.863Z,4.93
2023-01-30T19:01:43.315Z,6.32
2023-01-30T19:05:47.579Z,7.25
2023-01-30T19:09:50.384Z,14.57
2023-01-30T19:13:53.453Z,7.03
2023-01-30T19:17:57.833Z,6.25
2023-01-30T19:22:02.009Z,4.82
2023-01-30T19:26:05.200Z,5.43
2023-01-30T19:30:09.580Z,5.30
2023-01-30T19:34:12.556Z,5.43
2023-01-30T19:38:17.109Z,5.25
2023-01-30T19:42:19.839Z,5.80
2023-01-30T19:46:23.199Z,5.72
2023-01-30T19:50:26.020Z,4.50
2023-01-30T19:54:31.224Z,3.25
2023-01-30T19:58:35.156Z,5.10
2023-01-30T20:02:38.286Z,3.83
2023-01-30T20:06:44.370Z,4.20
2023-01-30T20:10:48.576Z,4.18
2023-01-30T20:14:51.362Z,4.25
2023-01-30T20:18:59.040Z,4.22
2023-01-30T20:23:01.956Z,3.55
2023-01-30T20:27:06.137Z,4.13
2023-01-30T20:31:10.712Z,4.40
2023-01-30T20:35:13.540Z,4.63
2023-01-30T20:39:16.941Z,4.43
2023-01-30T20:43:21.113Z,4.10
2023-01-30T20:47:23.897Z,3.88
2023-01-30T20:51:28.641Z,3.80
2023-01-30T20:55:31.406Z,4.72
2023-01-30T20:59:35.907Z,4.60
2023-01-30T21:03:39.610Z,3.78
2023-01-30T21:07:42.405Z,4.47
2023-01-30T21:11:45.524Z,5.03
2023-01-30T21:15:49.708Z,4.13
2023-01-30T21:19:52.432Z,4.50
2023-01-30T21:23:57.213Z,4.80
2023-01-30T21:28:00.413Z,4.10
2023-01-30T21:32:04.616Z,3.53
2023-01-30T21:36:08.559Z,3.88
2023-01-30T21:40:30.383Z,4.07
2023-01-30T21:44:37.098Z,4.25
2023-01-30T21:48:41.239Z,4.35
2023-01-30T21:52:44.066Z,4.25
2023-01-30T21:56:47.032Z,5.05
2023-01-30T22:00:49.812Z,5.55
2023-01-30T22:04:53.913Z,4.80
2023-01-30T22:08:57.107Z,4.07
2023-01-30T22:12:59.865Z,5.10
2023-01-30T22:17:02.788Z,4.45
2023-01-30T22:21:10.814Z,4.88
2023-01-30T22:25:13.603Z,3.20
2023-01-30T22:29:18.024Z,5.15
2023-01-30T22:33:20.774Z,4.18
2023-01-30T22:37:24.914Z,3.78
2023-01-30T22:41:28.825Z,4.60
2023-01-30T22:45:31.550Z,3.95
2023-01-30T22:49:34.328Z,4.18
2023-01-30T22:53:39.752Z,4.15
2023-01-30T22:57:42.546Z,4.25
2023-01-30T23:01:46.976Z,4.32
2023-01-30T23:05:58.185Z,4.15
2023-01-30T23:10:02.367Z,4.72
2023-01-30T23:14:09.885Z,4.28
2023-01-30T23:18:30.219Z,3.72
2023-01-30T23:22:33.015Z,3.53
2023-01-30T23:26:39.238Z,4.15
2023-01-30T23:30:42.069Z,3.35
2023-01-30T23:34:45.152Z,4.63
2023-01-30T23:38:49.196Z,4.80
2023-01-30T23:42:53.328Z,4.53
2023-01-30T23:46:56.146Z,4.20
2023-01-30T23:51:03.117Z,4.13
2023-01-30T23:55:06.672Z,4.32
2023-01-30T23:59:11.363Z,4.20
